Aérodrome :
LOGIN :

S'inscrire | Disclaimer

   EN    FR    IT 

 










Légende :    VFR   VFR Marginal   IFR   IFR Intensif   IFR Très Intensif
Visi : 
Plafond : 
>= 8 km
>= 3000ft
5 à 8 km
1000 à 3000 ft
1500m à 5 km
500 à 1000 ft
800 à 1500m
200 à 500 ft
< 800m
< 200 ft
Symboles :   Orages  Brouillard  Fortes neiges  Fortes précipitations  Vent > 20 kt
SIGMETs :   Divers  Orages  Givrage  Turbulence  Onde Orograph.  Cendres Volcan.







- Altitude de l'aérodrome : 17 ft
- Code IATA : MPL
- Voir les cartes d'approche


LFMT - Montpellier Méditerranée

DERNIER METAR :
  • 232130Z AUTO VRB02KT CAVOK 10/06 Q1027 NOSIG

METARs EXPIRÉS :
  • 232100Z AUTO 02003KT CAVOK 11/06 Q1026 TEMPO 32010KT
  • 232030Z AUTO 34005KT CAVOK 12/06 Q1026 NOSIG
  • 232000Z AUTO 32009KT CAVOK 12/06 Q1026 NOSIG
  • 231930Z AUTO 34007KT CAVOK 11/06 Q1026 NOSIG
  • 231900Z AUTO 34006KT CAVOK 13/06 Q1026 NOSIG

TAF TAF LFMT
Valide du 23 à 21h jusqu'au 24 à 21h UTC


232000Z 2321/2421 32010KT CAVOK
BECMG 2322/2324 VRB04KT
BECMG 2407/2409 BKN010
BECMG 2412/2414 12012KT
ATIS : +33 4 67 13 11 70
Pas de NOTAMs connus pour ce terrain.



MET'MAP, la Météo Aéronautique d'un coup d'oeil ! - Copyright ORBIFLY Décembre 2007 - Disclaimer

ORBIFLY MET'MAP TEAM :

Programmation & Développement : Alexandra Zaïnal
Conception & Développement : Baudouin d'Aumeries
Co-Programmation & Développement : Marc-Olivier Méhu
Soutien technique & logistique : Manuel Goepfert

Contact : metmap@orbifly.com




SOURCES & CREDITS :

   NOAA